createdAt,value
2023-02-26T00:01:42.235Z,1.70
2023-02-26T00:04:11.347Z,1.70
2023-02-26T00:06:52.352Z,1.60
2023-02-26T00:09:21.179Z,1.60
2023-02-26T00:11:51.155Z,1.60
2023-02-26T00:14:19.573Z,1.60
2023-02-26T00:16:51.379Z,1.60
2023-02-26T00:19:20.120Z,1.50
2023-02-26T00:21:48.303Z,1.50
2023-02-26T00:24:16.054Z,1.50
2023-02-26T00:26:43.946Z,1.40
2023-02-26T00:29:13.745Z,1.40
2023-02-26T00:31:42.242Z,1.40
2023-02-26T00:34:13.443Z,1.40
2023-02-26T00:36:46.796Z,1.40
2023-02-26T00:39:36.546Z,1.40
2023-02-26T00:42:04.960Z,1.40
2023-02-26T00:44:35.039Z,1.40
2023-02-26T00:47:09.883Z,1.40
2023-02-26T00:49:50.872Z,1.40
2023-02-26T00:52:27.143Z,1.40
2023-02-26T00:54:54.993Z,1.40
2023-02-26T00:57:23.145Z,1.30
2023-02-26T00:59:52.331Z,1.40
2023-02-26T01:02:21.258Z,1.30
2023-02-26T01:04:49.585Z,1.30
2023-02-26T01:07:23.429Z,1.30
2023-02-26T01:09:51.948Z,1.30
2023-02-26T01:12:20.213Z,1.30
2023-02-26T01:14:50.420Z,1.30
2023-02-26T01:17:24.447Z,1.30
2023-02-26T01:19:56.474Z,1.20
2023-02-26T01:22:31.009Z,1.20
2023-02-26T01:25:03.499Z,1.30
2023-02-26T01:27:31.738Z,1.30
2023-02-26T01:30:00.036Z,1.20
2023-02-26T01:32:45.451Z,1.20
2023-02-26T01:35:22.401Z,1.20
2023-02-26T01:37:58.349Z,1.20
2023-02-26T01:41:08.154Z,1.10
2023-02-26T01:43:46.408Z,1.10
2023-02-26T01:46:19.264Z,1.00
2023-02-26T01:48:52.707Z,1.00
2023-02-26T01:51:36.310Z,1.00
2023-02-26T01:54:04.248Z,1.00
2023-02-26T01:56:32.181Z,1.00
2023-02-26T01:59:00.726Z,1.00
2023-02-26T02:01:28.614Z,0.90
2023-02-26T02:03:57.875Z,0.80
2023-02-26T02:06:27.713Z,0.80
2023-02-26T02:08:56.030Z,0.90
2023-02-26T02:11:24.631Z,0.90
2023-02-26T02:14:09.407Z,0.90
2023-02-26T02:16:47.392Z,0.90
2023-02-26T02:19:34.957Z,0.90
2023-02-26T02:22:21.099Z,0.90
2023-02-26T02:24:59.355Z,0.90
2023-02-26T02:27:37.299Z,0.90
2023-02-26T02:30:26.506Z,0.90
2023-02-26T02:33:00.970Z,0.90
2023-02-26T02:35:35.331Z,0.90
2023-02-26T02:38:08.305Z,0.90
2023-02-26T02:40:41.020Z,0.90
2023-02-26T02:43:11.839Z,0.90
2023-02-26T02:45:44.299Z,0.90
2023-02-26T02:48:18.408Z,0.90
2023-02-26T02:50:50.625Z,0.80
2023-02-26T02:53:22.174Z,0.80
2023-02-26T02:55:55.867Z,0.70
2023-02-26T02:58:26.335Z,0.70
2023-02-26T03:00:57.513Z,0.70
2023-02-26T03:03:32.456Z,0.70
2023-02-26T03:06:00.418Z,0.60
2023-02-26T03:08:32.578Z,0.60
2023-02-26T03:11:00.377Z,0.60
2023-02-26T03:13:28.342Z,0.70
2023-02-26T03:16:22.537Z,0.70
2023-02-26T03:19:00.297Z,0.70
2023-02-26T03:21:32.705Z,0.70
2023-02-26T03:24:07.538Z,0.70
2023-02-26T03:26:43.760Z,0.70
2023-02-26T03:29:18.404Z,0.70
2023-02-26T03:31:54.626Z,0.70
2023-02-26T03:34:28.368Z,0.70
2023-02-26T03:37:00.197Z,0.70
2023-02-26T03:39:34.534Z,0.60
2023-02-26T03:42:07.487Z,0.60
2023-02-26T03:44:48.094Z,0.70
2023-02-26T03:47:17.429Z,0.70
2023-02-26T03:49:51.456Z,0.80
2023-02-26T03:52:21.684Z,0.80
2023-02-26T03:55:04.187Z,0.80
2023-02-26T03:57:52.379Z,0.80
2023-02-26T04:00:45.387Z,0.80
2023-02-26T04:03:18.245Z,0.80
2023-02-26T04:05:51.340Z,0.90
2023-02-26T04:08:21.408Z,0.90
2023-02-26T04:10:55.393Z,0.90
2023-02-26T04:13:23.544Z,0.90
2023-02-26T04:15:53.474Z,0.80
2023-02-26T04:18:21.852Z,0.80
2023-02-26T04:20:51.275Z,0.70
2023-02-26T04:23:21.892Z,0.70
2023-02-26T04:25:49.797Z,0.70
2023-02-26T04:28:18.009Z,0.70
2023-02-26T04:30:46.007Z,0.70
2023-02-26T04:33:16.098Z,0.70
2023-02-26T04:35:44.080Z,0.70
2023-02-26T04:38:13.396Z,0.70
2023-02-26T04:40:41.292Z,0.60
2023-02-26T04:43:12.935Z,0.50
2023-02-26T04:45:49.673Z,0.50
2023-02-26T04:48:18.452Z,0.40
2023-02-26T04:50:47.011Z,0.50
2023-02-26T04:53:16.258Z,0.40
2023-02-26T04:55:44.281Z,0.40
2023-02-26T04:58:12.190Z,0.40
2023-02-26T05:00:41.172Z,0.40
2023-02-26T05:03:09.920Z,0.40
2023-02-26T05:05:37.810Z,0.40
2023-02-26T05:08:05.813Z,0.40
2023-02-26T05:10:35.508Z,0.40
2023-02-26T05:13:05.685Z,0.50
2023-02-26T05:15:34.042Z,0.40
2023-02-26T05:18:01.876Z,0.50
2023-02-26T05:20:30.469Z,0.50
2023-02-26T05:22:58.322Z,0.50
2023-02-26T05:25:26.211Z,0.50
2023-02-26T05:27:55.798Z,0.40
2023-02-26T05:30:24.420Z,0.40
2023-02-26T05:32:52.292Z,0.40
2023-02-26T05:35:20.280Z,0.40
2023-02-26T05:37:48.601Z,0.40
2023-02-26T05:40:16.638Z,0.40
2023-02-26T05:42:45.065Z,0.40
2023-02-26T05:45:14.156Z,0.40
2023-02-26T05:47:42.186Z,0.40
2023-02-26T05:50:11.691Z,0.40
2023-02-26T05:52:39.703Z,0.40
2023-02-26T05:55:09.289Z,0.40
2023-02-26T05:57:37.096Z,0.40
2023-02-26T06:00:07.121Z,0.40
2023-02-26T06:02:42.024Z,0.40
2023-02-26T06:05:10.758Z,0.50
2023-02-26T06:07:38.565Z,0.50
2023-02-26T06:10:08.591Z,0.60
2023-02-26T06:12:36.413Z,0.60
2023-02-26T06:15:05.181Z,0.60
2023-02-26T06:17:33.106Z,0.60
2023-02-26T06:20:02.989Z,0.60
2023-02-26T06:22:30.780Z,0.60
2023-02-26T06:24:58.606Z,0.60
2023-02-26T06:27:26.412Z,0.50
2023-02-26T06:29:54.236Z,0.50
2023-02-26T06:32:22.149Z,0.50
2023-02-26T06:34:49.941Z,0.50
2023-02-26T06:37:19.009Z,0.50
2023-02-26T06:39:46.866Z,0.50
2023-02-26T06:42:14.641Z,0.50
2023-02-26T06:44:42.476Z,0.50
2023-02-26T06:47:10.477Z,0.50
2023-02-26T06:49:38.305Z,0.50
2023-02-26T06:52:06.612Z,0.50
2023-02-26T06:54:35.871Z,0.50
2023-02-26T06:57:03.706Z,0.60
2023-02-26T06:59:31.542Z,0.60
2023-02-26T07:01:59.419Z,0.60
2023-02-26T07:04:27.207Z,0.70
2023-02-26T07:06:55.085Z,0.60
2023-02-26T07:09:22.979Z,0.60
2023-02-26T07:11:52.193Z,0.60
2023-02-26T07:14:20.008Z,0.60
2023-02-26T07:16:47.814Z,0.60
2023-02-26T07:19:15.721Z,0.60
2023-02-26T07:21:43.492Z,0.60
2023-02-26T07:24:11.313Z,0.60
2023-02-26T07:26:39.213Z,0.60
2023-02-26T07:29:08.436Z,0.60
2023-02-26T07:31:37.037Z,0.70
2023-02-26T07:34:05.003Z,0.70
2023-02-26T07:36:32.821Z,0.70
2023-02-26T07:39:00.665Z,0.70
2023-02-26T07:41:28.497Z,0.90
2023-02-26T07:43:56.244Z,0.90
2023-02-26T07:46:26.025Z,1.00
2023-02-26T07:48:53.974Z,1.10
2023-02-26T07:51:21.910Z,1.10
2023-02-26T07:53:49.671Z,1.20
2023-02-26T07:56:17.441Z,1.30
2023-02-26T07:58:45.271Z,1.40
2023-02-26T08:01:13.184Z,1.50
2023-02-26T08:03:42.302Z,1.70
2023-02-26T08:06:10.189Z,1.70
2023-02-26T08:08:37.965Z,1.80
2023-02-26T08:11:05.966Z,1.90
2023-02-26T08:13:33.902Z,2.00
2023-02-26T08:16:01.732Z,2.10
2023-02-26T08:18:29.555Z,2.20
2023-02-26T08:20:58.708Z,2.30
2023-02-26T08:23:27.679Z,2.30
2023-02-26T08:26:02.079Z,2.40
2023-02-26T08:28:30.618Z,2.60
2023-02-26T08:30:58.482Z,2.80
2023-02-26T08:33:26.623Z,2.80
2023-02-26T08:35:56.035Z,2.70
2023-02-26T08:38:25.318Z,2.60
2023-02-26T08:40:53.395Z,2.50
2023-02-26T08:43:21.906Z,2.50
2023-02-26T08:45:52.277Z,2.60
2023-02-26T08:48:20.226Z,2.60
2023-02-26T08:50:48.017Z,2.70
2023-02-26T08:53:16.306Z,2.80
2023-02-26T08:55:48.975Z,2.90
2023-02-26T08:58:16.885Z,3.00
2023-02-26T09:00:44.794Z,3.00
2023-02-26T09:03:12.694Z,3.00
2023-02-26T09:05:41.047Z,3.00
2023-02-26T09:08:09.730Z,3.00
2023-02-26T09:10:39.182Z,3.10
2023-02-26T09:13:09.491Z,3.30
2023-02-26T09:15:37.679Z,3.40
2023-02-26T09:18:06.382Z,3.50
2023-02-26T09:20:34.277Z,3.60
2023-02-26T09:23:02.089Z,3.60
2023-02-26T09:25:30.052Z,3.60
2023-02-26T09:27:58.817Z,3.60
2023-02-26T09:30:28.421Z,3.50
2023-02-26T09:32:56.167Z,3.50
2023-02-26T09:35:23.912Z,3.60
2023-02-26T09:37:52.409Z,3.70
2023-02-26T09:40:29.481Z,3.80
2023-02-26T09:43:11.858Z,3.80
2023-02-26T09:45:44.731Z,3.80
2023-02-26T09:48:16.401Z,3.80
2023-02-26T09:50:47.981Z,3.90
2023-02-26T09:53:19.443Z,4.00
2023-02-26T09:55:50.354Z,4.10
2023-02-26T09:58:22.327Z,4.30
2023-02-26T10:00:57.689Z,4.40
2023-02-26T10:03:30.641Z,4.40
2023-02-26T10:06:19.382Z,4.30
2023-02-26T10:08:58.012Z,4.20
2023-02-26T10:11:32.530Z,4.10
2023-02-26T10:14:05.774Z,3.90
2023-02-26T10:16:41.154Z,3.90
2023-02-26T10:19:17.078Z,3.80
2023-02-26T10:21:49.844Z,3.80
2023-02-26T10:24:23.377Z,3.90
2023-02-26T10:26:58.652Z,3.90
2023-02-26T10:29:28.358Z,4.00
2023-02-26T10:32:13.181Z,4.10
2023-02-26T10:34:47.527Z,4.30
2023-02-26T10:37:20.427Z,4.40
2023-02-26T10:39:52.732Z,4.40
2023-02-26T10:42:24.297Z,4.40
2023-02-26T10:45:08.932Z,4.50
2023-02-26T10:47:46.498Z,4.70
2023-02-26T10:50:17.099Z,4.80
2023-02-26T10:52:49.663Z,4.90
2023-02-26T10:55:33.413Z,5.10
2023-02-26T10:58:05.946Z,5.30
2023-02-26T11:00:36.123Z,5.40
2023-02-26T11:03:07.529Z,5.50
2023-02-26T11:05:35.625Z,5.70
2023-02-26T11:08:06.569Z,5.70
2023-02-26T11:10:45.799Z,5.80
2023-02-26T11:13:13.761Z,5.80
2023-02-26T11:15:42.038Z,5.80
2023-02-26T11:18:17.000Z,5.90
2023-02-26T11:20:47.559Z,6.00
2023-02-26T11:23:19.808Z,6.10
2023-02-26T11:25:48.190Z,6.20
2023-02-26T11:28:23.238Z,6.20
2023-02-26T11:30:54.325Z,6.30
2023-02-26T11:33:30.258Z,6.30
2023-02-26T11:36:02.626Z,6.40
2023-02-26T11:38:32.257Z,6.50
2023-02-26T11:41:03.070Z,6.40
2023-02-26T11:43:38.605Z,6.40
2023-02-26T11:46:06.960Z,6.30
2023-02-26T11:48:42.155Z,6.40
2023-02-26T11:51:14.323Z,6.50
2023-02-26T11:53:48.757Z,6.40
2023-02-26T11:56:23.850Z,6.50
2023-02-26T11:58:55.432Z,6.40
2023-02-26T12:01:29.300Z,6.40
2023-02-26T12:04:02.767Z,6.40
2023-02-26T12:06:32.098Z,6.50
2023-02-26T12:09:00.192Z,6.50
2023-02-26T12:12:01.022Z,6.50
2023-02-26T12:14:48.992Z,6.50
2023-02-26T12:17:32.035Z,6.60
2023-02-26T12:20:15.218Z,6.70
2023-02-26T12:22:54.819Z,6.60
2023-02-26T12:25:41.811Z,6.40
2023-02-26T12:28:27.384Z,6.40
2023-02-26T12:31:16.678Z,6.40
2023-02-26T12:33:56.247Z,6.40
2023-02-26T12:36:48.371Z,6.40
2023-02-26T12:39:37.736Z,6.30
2023-02-26T12:42:16.046Z,6.10
2023-02-26T12:45:00.749Z,6.00
2023-02-26T12:47:38.500Z,6.00
2023-02-26T12:50:22.613Z,6.20
2023-02-26T12:53:14.319Z,6.40
2023-02-26T12:55:53.335Z,6.40
2023-02-26T12:58:46.686Z,6.20
2023-02-26T13:01:52.775Z,6.00
2023-02-26T13:05:01.429Z,6.00
2023-02-26T13:07:51.110Z,6.00
2023-02-26T13:10:28.179Z,6.10
2023-02-26T13:13:12.404Z,6.00
2023-02-26T13:15:53.364Z,5.70
2023-02-26T13:18:29.763Z,5.60
2023-02-26T13:21:01.177Z,5.50
2023-02-26T13:23:34.113Z,5.40
2023-02-26T13:26:07.290Z,5.30
2023-02-26T13:28:41.887Z,5.20
2023-02-26T13:31:14.584Z,5.00
2023-02-26T13:33:44.310Z,4.90
2023-02-26T13:36:12.782Z,4.80
2023-02-26T13:38:54.341Z,4.70
2023-02-26T13:41:33.090Z,4.70
2023-02-26T13:44:16.468Z,4.70
2023-02-26T13:46:57.881Z,4.60
2023-02-26T13:49:32.269Z,4.50
2023-02-26T13:52:00.199Z,4.50
2023-02-26T13:54:36.418Z,4.60
2023-02-26T13:57:22.019Z,4.60
2023-02-26T13:59:54.129Z,4.60
2023-02-26T14:02:47.146Z,4.60
2023-02-26T14:05:46.791Z,4.60
2023-02-26T14:08:39.226Z,4.80
2023-02-26T14:11:26.365Z,5.00
2023-02-26T14:14:11.403Z,5.20
2023-02-26T14:16:41.853Z,5.20
2023-02-26T14:19:23.470Z,5.20
2023-02-26T14:21:52.822Z,5.00
2023-02-26T14:24:26.180Z,4.90
2023-02-26T14:27:22.175Z,4.80
2023-02-26T14:30:03.805Z,4.70
2023-02-26T14:32:33.031Z,4.90
2023-02-26T14:35:07.149Z,5.00
2023-02-26T14:37:37.277Z,5.10
2023-02-26T14:40:12.279Z,5.20
2023-02-26T14:42:49.750Z,5.20
2023-02-26T14:45:30.212Z,5.20
2023-02-26T14:48:00.043Z,5.10
2023-02-26T14:50:32.957Z,5.10
2023-02-26T14:53:33.669Z,5.00
2023-02-26T14:56:10.465Z,4.90
2023-02-26T14:59:01.974Z,4.80
2023-02-26T15:01:47.201Z,4.50
2023-02-26T15:04:55.677Z,4.20
2023-02-26T15:07:41.044Z,4.00
2023-02-26T15:10:20.818Z,4.00
2023-02-26T15:13:14.580Z,4.00
2023-02-26T15:15:52.974Z,4.30
2023-02-26T15:18:50.617Z,4.40
2023-02-26T15:21:27.658Z,4.50
2023-02-26T15:23:57.734Z,4.30
2023-02-26T15:26:29.420Z,4.20
2023-02-26T15:28:58.318Z,4.10
2023-02-26T15:31:32.333Z,4.00
2023-02-26T15:34:03.086Z,3.90
2023-02-26T15:36:32.368Z,3.60
2023-02-26T15:39:03.721Z,3.50
2023-02-26T15:41:33.816Z,3.30
2023-02-26T15:44:05.226Z,3.20
2023-02-26T15:46:35.898Z,3.10
2023-02-26T15:49:09.610Z,3.00
2023-02-26T15:51:37.636Z,2.90
2023-02-26T15:54:06.175Z,2.90
2023-02-26T15:56:37.766Z,2.80
2023-02-26T15:59:09.179Z,2.90
2023-02-26T16:01:37.694Z,3.00
2023-02-26T16:04:13.006Z,3.20
2023-02-26T16:06:43.270Z,3.30
2023-02-26T16:09:19.766Z,3.40
2023-02-26T16:11:49.807Z,3.50
2023-02-26T16:14:22.829Z,3.50
2023-02-26T16:16:53.131Z,3.50
2023-02-26T16:19:30.088Z,3.40
2023-02-26T16:21:58.649Z,3.20
2023-02-26T16:24:29.118Z,3.10
2023-02-26T16:27:01.777Z,2.90
2023-02-26T16:29:31.805Z,2.80
2023-02-26T16:32:03.129Z,2.70
2023-02-26T16:34:37.738Z,2.60
2023-02-26T16:37:23.947Z,2.50
2023-02-26T16:39:56.972Z,2.40
2023-02-26T16:42:38.418Z,2.50
2023-02-26T16:45:20.774Z,2.50
2023-02-26T16:47:51.970Z,2.40
2023-02-26T16:50:25.221Z,2.40
2023-02-26T16:53:00.836Z,2.30
2023-02-26T16:55:30.629Z,2.20
2023-02-26T16:58:02.651Z,2.00
2023-02-26T17:00:31.795Z,1.90
2023-02-26T17:03:05.297Z,1.80
2023-02-26T17:05:37.955Z,1.70
2023-02-26T17:08:10.580Z,1.70
2023-02-26T17:10:41.740Z,1.70
2023-02-26T17:13:16.212Z,1.60
2023-02-26T17:15:46.474Z,1.70
2023-02-26T17:18:14.891Z,1.70
2023-02-26T17:20:44.588Z,1.80
2023-02-26T17:23:17.228Z,1.80
2023-02-26T17:25:47.408Z,1.80
2023-02-26T17:28:21.151Z,1.80
2023-02-26T17:30:49.437Z,1.80
2023-02-26T17:33:17.264Z,1.70
2023-02-26T17:35:46.767Z,1.70
2023-02-26T17:38:15.902Z,1.70
2023-02-26T17:40:47.604Z,1.60
2023-02-26T17:43:15.515Z,1.60
2023-02-26T17:45:43.813Z,1.50
2023-02-26T17:48:13.659Z,1.40
2023-02-26T17:50:46.956Z,1.40
2023-02-26T17:53:16.492Z,1.30
2023-02-26T17:55:45.353Z,1.30
2023-02-26T17:58:17.063Z,1.30
2023-02-26T18:00:49.590Z,1.20
2023-02-26T18:03:17.641Z,1.20
2023-02-26T18:05:45.478Z,1.20
2023-02-26T18:08:21.879Z,1.20
2023-02-26T18:10:49.812Z,1.10
2023-02-26T18:13:17.677Z,1.10
2023-02-26T18:15:46.037Z,1.20
2023-02-26T18:18:15.600Z,1.20
2023-02-26T18:20:46.005Z,1.30
2023-02-26T18:23:14.129Z,1.30
2023-02-26T18:25:45.485Z,1.30
2023-02-26T18:28:17.425Z,1.30
2023-02-26T18:30:46.025Z,1.30
2023-02-26T18:33:16.925Z,1.20
2023-02-26T18:35:47.225Z,1.10
2023-02-26T18:38:15.685Z,1.10
2023-02-26T18:40:45.769Z,1.00
2023-02-26T18:43:14.218Z,0.90
2023-02-26T18:45:43.117Z,0.80
2023-02-26T18:48:12.883Z,0.70
2023-02-26T18:50:40.697Z,0.60
2023-02-26T18:53:08.487Z,0.60
2023-02-26T18:55:37.319Z,0.50
2023-02-26T18:58:06.737Z,0.50
2023-02-26T19:00:35.564Z,0.40
2023-02-26T19:03:03.436Z,0.40
2023-02-26T19:05:31.250Z,0.30
2023-02-26T19:07:59.769Z,0.20
2023-02-26T19:10:29.440Z,0.20
2023-02-26T19:12:57.351Z,0.20
2023-02-26T19:15:26.904Z,0.10
2023-02-26T19:17:54.896Z,0.10
2023-02-26T19:20:23.178Z,0.10
2023-02-26T19:22:50.973Z,0.10
2023-02-26T19:25:23.745Z,0.00
2023-02-26T19:27:53.445Z,0.00
2023-02-26T19:30:22.425Z,0.00
2023-02-26T19:32:52.119Z,0.00
2023-02-26T19:35:20.203Z,-0.10
2023-02-26T19:37:48.703Z,-0.10
2023-02-26T19:40:17.257Z,-0.10
2023-02-26T19:42:45.269Z,-0.20
2023-02-26T19:45:13.631Z,-0.20
2023-02-26T19:47:41.728Z,-0.20
2023-02-26T19:50:12.649Z,-0.20
2023-02-26T19:52:40.977Z,-0.20
2023-02-26T19:55:10.558Z,-0.20
2023-02-26T19:57:38.485Z,-0.20
2023-02-26T20:00:07.907Z,-0.20
2023-02-26T20:02:43.233Z,-0.20
2023-02-26T20:05:16.939Z,-0.30
2023-02-26T20:07:45.604Z,-0.30
2023-02-26T20:10:15.571Z,-0.30
2023-02-26T20:12:43.617Z,-0.40
2023-02-26T20:15:12.503Z,-0.40
2023-02-26T20:17:40.393Z,-0.40
2023-02-26T20:20:09.809Z,-0.40
2023-02-26T20:22:38.970Z,-0.50
2023-02-26T20:25:07.249Z,-0.50
2023-02-26T20:27:36.350Z,-0.60
2023-02-26T20:30:04.335Z,-0.60
2023-02-26T20:32:32.815Z,-0.70
2023-02-26T20:35:00.674Z,-0.70
2023-02-26T20:37:28.466Z,-0.70
2023-02-26T20:39:57.577Z,-0.80
2023-02-26T20:42:25.637Z,-0.80
2023-02-26T20:44:53.429Z,-0.80
2023-02-26T20:47:23.325Z,-0.90
2023-02-26T20:49:51.170Z,-0.90
2023-02-26T20:52:19.634Z,-0.90
2023-02-26T20:54:47.385Z,-1.00
2023-02-26T20:57:16.751Z,-1.00
2023-02-26T20:59:44.621Z,-1.00
2023-02-26T21:02:13.787Z,-1.10
2023-02-26T21:04:41.602Z,-1.10
2023-02-26T21:07:21.641Z,-1.10
2023-02-26T21:09:50.014Z,-1.10
2023-02-26T21:12:20.698Z,-1.20
2023-02-26T21:14:51.203Z,-1.20
2023-02-26T21:17:19.116Z,-1.20
2023-02-26T21:19:47.271Z,-1.20
2023-02-26T21:22:15.418Z,-1.30
2023-02-26T21:24:43.583Z,-1.30
2023-02-26T21:27:12.202Z,-1.40
2023-02-26T21:29:41.320Z,-1.40
2023-02-26T21:32:09.863Z,-1.40
2023-02-26T21:34:37.974Z,-1.40
2023-02-26T21:37:07.838Z,-1.50
2023-02-26T21:39:36.309Z,-1.50
2023-02-26T21:42:04.483Z,-1.50
2023-02-26T21:44:33.859Z,-1.60
2023-02-26T21:47:04.341Z,-1.60
2023-02-26T21:49:32.701Z,-1.60
2023-02-26T21:52:01.420Z,-1.70
2023-02-26T21:54:29.781Z,-1.70
2023-02-26T21:56:57.958Z,-1.80
2023-02-26T21:59:25.739Z,-1.80
2023-02-26T22:01:54.079Z,-1.80
2023-02-26T22:04:23.301Z,-1.90
2023-02-26T22:06:51.241Z,-1.90
2023-02-26T22:09:19.902Z,-1.90
2023-02-26T22:11:48.002Z,-2.00
2023-02-26T22:14:15.974Z,-2.00
2023-02-26T22:16:43.834Z,-2.00
2023-02-26T22:19:11.624Z,-2.10
2023-02-26T22:21:40.685Z,-2.10
2023-02-26T22:24:09.251Z,-2.10
2023-02-26T22:26:37.032Z,-2.10
2023-02-26T22:29:05.234Z,-2.20
2023-02-26T22:31:33.312Z,-2.20
2023-02-26T22:34:01.349Z,-2.30
2023-02-26T22:36:31.182Z,-2.30
2023-02-26T22:39:00.362Z,-2.30
2023-02-26T22:41:28.159Z,-2.30
2023-02-26T22:43:55.953Z,-2.40
2023-02-26T22:46:24.391Z,-2.40
2023-02-26T22:48:52.618Z,-2.40
2023-02-26T22:51:20.383Z,-2.50
2023-02-26T22:53:49.065Z,-2.50
2023-02-26T22:56:18.159Z,-2.50
2023-02-26T22:58:45.996Z,-2.50
2023-02-26T23:01:13.796Z,-2.50
2023-02-26T23:03:41.621Z,-2.60
2023-02-26T23:06:09.885Z,-2.60
2023-02-26T23:08:37.976Z,-2.60
2023-02-26T23:11:07.405Z,-2.70
2023-02-26T23:13:38.019Z,-2.80
2023-02-26T23:16:08.817Z,-2.80
2023-02-26T23:18:37.498Z,-2.80
2023-02-26T23:21:06.810Z,-2.80
2023-02-26T23:23:34.765Z,-2.80
2023-02-26T23:26:02.570Z,-2.80
2023-02-26T23:28:31.047Z,-2.90
2023-02-26T23:31:00.200Z,-2.90
2023-02-26T23:33:28.089Z,-2.90
2023-02-26T23:35:56.349Z,-2.90
2023-02-26T23:38:24.297Z,-3.00
2023-02-26T23:40:52.242Z,-3.00
2023-02-26T23:43:20.046Z,-3.10
2023-02-26T23:45:47.809Z,-3.10
2023-02-26T23:48:16.916Z,-3.10
2023-02-26T23:50:44.725Z,-3.10
2023-02-26T23:53:12.488Z,-3.10
2023-02-26T23:55:40.299Z,-3.10
2023-02-26T23:58:08.105Z,-3.20
